Time;durP1;ratioP1;P1;durP2;ratioP2;P2;SDS_P1;SDS_P2;PMS_P1;PMS_P2;Temp;Humidity;BMP_temperature;BMP_pressure;BME280_temperature;BME280_humidity;BME280_pressure;Samples;Min_cycle;Max_cycle;Signal;HPM_P1;HPM_P2
2022/10/20 00:02:23;;;;;;;10.13;6.13;;;;;;;7.93;100.00;102218.38;5111099;27;20050;-82
2022/10/20 00:04:52;;;;;;;10.13;6.75;;;;;;;7.92;100.00;102200.81;5094235;27;20051;-82
2022/10/20 00:07:22;;;;;;;13.60;7.32;;;;;;;7.91;100.00;102201.69;5085246;28;20257;-81
2022/10/20 00:09:50;;;;;;;10.00;6.18;;;;;;;7.89;100.00;102203.34;5081142;27;20542;-82
2022/10/20 00:12:19;;;;;;;9.95;6.68;;;;;;;7.88;100.00;102191.97;5084347;27;20519;-83
2022/10/20 00:14:47;;;;;;;9.38;6.38;;;;;;;7.89;100.00;102195.47;5093469;28;20038;-81
2022/10/20 00:17:15;;;;;;;10.30;5.80;;;;;;;7.87;100.00;102190.16;5095968;27;20040;-80
2022/10/20 00:19:47;;;;;;;9.55;5.68;;;;;;;7.86;100.00;102177.88;5077721;27;20054;-82
2022/10/20 00:22:15;;;;;;;8.32;5.15;;;;;;;7.86;100.00;102180.50;5092619;27;20428;-82
2022/10/20 00:24:44;;;;;;;8.48;5.18;;;;;;;7.85;100.00;102164.72;5111029;27;20031;-82
2022/10/20 00:27:13;;;;;;;9.82;5.05;;;;;;;7.85;100.00;102169.97;5075345;27;20435;-81
2022/10/20 00:29:41;;;;;;;7.05;4.82;;;;;;;7.84;100.00;102169.06;5079230;28;20044;-81
2022/10/20 00:32:10;;;;;;;7.60;5.32;;;;;;;7.84;100.00;102168.16;5093194;28;20161;-81
2022/10/20 00:34:38;;;;;;;15.55;5.35;;;;;;;7.84;100.00;102168.16;5094023;28;20040;-82
2022/10/20 00:37:07;;;;;;;8.93;4.97;;;;;;;7.81;100.00;102169.84;5067957;28;20252;-81
2022/10/20 00:39:35;;;;;;;12.27;5.75;;;;;;;7.80;100.00;102168.06;5102268;27;20039;-83
2022/10/20 00:42:04;;;;;;;10.05;5.15;;;;;;;7.79;100.00;102168.03;5085071;27;20043;-81
2022/10/20 00:44:58;;;;;;;11.65;5.93;;;;;;;7.78;100.00;102158.34;5076857;27;20140;-82
2022/10/20 00:47:49;;;;;;;11.75;7.18;;;;;;;7.74;100.00;102146.84;5104279;28;20039;-82
2022/10/20 00:50:24;;;;;;;15.98;8.10;;;;;;;7.71;100.00;102133.63;5104727;27;21064;-82
2022/10/20 00:52:54;;;;;;;10.23;7.30;;;;;;;7.68;100.00;102130.91;5106363;27;20043;-81
2022/10/20 00:55:25;;;;;;;10.75;6.55;;;;;;;7.66;100.00;102131.69;5094283;27;20035;-80
2022/10/20 00:57:57;;;;;;;7.15;5.20;;;;;;;7.65;100.00;102129.88;5101809;27;20043;-82
2022/10/20 01:00:26;;;;;;;10.13;5.63;;;;;;;7.61;100.00;102127.13;5048548;27;20043;-82
2022/10/20 01:02:59;;;;;;;12.43;6.25;;;;;;;7.58;100.00;102116.56;5095566;28;20044;-83
2022/10/20 01:05:29;;;;;;;7.93;4.97;;;;;;;7.57;100.00;102116.50;5092674;27;23310;-82
2022/10/20 01:07:58;;;;;;;7.63;5.38;;;;;;;7.56;100.00;102109.44;5112264;28;20101;-82
2022/10/20 01:10:35;;;;;;;6.65;4.97;;;;;;;7.53;100.00;102107.63;5095967;27;20459;-82
2022/10/20 01:13:27;;;;;;;8.40;4.90;;;;;;;7.52;100.00;102097.94;5088554;28;20060;-83
2022/10/20 01:16:08;;;;;;;9.23;4.97;;;;;;;7.49;100.00;102092.63;5082056;28;20035;-81
2022/10/20 01:18:50;;;;;;;10.32;5.20;;;;;;;7.48;100.00;102096.06;5111483;28;20040;-81
2022/10/20 01:21:51;;;;;;;10.90;5.90;;;;;;;7.48;100.00;102101.31;5116187;27;20047;-82
2022/10/20 01:24:41;;;;;;;10.82;5.70;;;;;;;7.45;100.00;102095.97;5104628;28;20043;-81
2022/10/20 01:27:13;;;;;;;8.65;4.85;;;;;;;7.41;100.00;102094.97;5095472;28;20039;-84
2022/10/20 01:29:56;;;;;;;10.63;4.50;;;;;;;7.40;100.00;102095.78;5096270;28;20238;-82
2022/10/20 01:32:43;;;;;;;9.43;5.03;;;;;;;7.39;100.00;102088.78;5073069;28;20039;-82
2022/10/20 01:35:20;;;;;;;6.70;4.75;;;;;;;7.38;100.00;102084.34;5103653;27;20039;-82
2022/10/20 01:37:59;;;;;;;8.80;4.53;;;;;;;7.37;100.00;102076.44;5112029;28;20047;-82
2022/10/20 01:40:33;;;;;;;7.55;4.57;;;;;;;7.34;100.00;102068.47;5095217;28;20253;-81
2022/10/20 01:43:06;;;;;;;10.40;4.85;;;;;;;7.32;100.00;102060.53;5072307;27;20058;-81
2022/10/20 01:45:38;;;;;;;6.57;4.43;;;;;;;7.29;100.00;102062.16;5108283;28;20043;-81
2022/10/20 01:48:09;;;;;;;9.10;4.75;;;;;;;7.27;100.00;102048.09;5078661;28;20059;-82
2022/10/20 01:50:39;;;;;;;5.70;4.13;;;;;;;7.26;100.00;102041.97;5097156;28;20031;-82
2022/10/20 01:53:15;;;;;;;7.00;4.20;;;;;;;7.25;100.00;102045.41;5090010;28;20508;-83
2022/10/20 01:55:44;;;;;;;7.47;4.15;;;;;;;7.23;100.00;102036.63;5106850;28;20400;-81
2022/10/20 01:58:30;;;;;;;7.75;4.75;;;;;;;7.22;100.00;102032.19;5103108;28;20044;-81
2022/10/20 02:01:13;;;;;;;5.82;3.95;;;;;;;7.22;100.00;102021.72;5102422;28;20052;-81
2022/10/20 02:03:56;;;;;;;11.55;4.90;;;;;;;7.21;100.00;102020.81;5087979;27;20043;-82
2022/10/20 02:06:57;;;;;;;5.95;4.28;;;;;;;7.20;100.00;102023.38;5096687;28;20035;-82
2022/10/20 02:09:33;;;;;;;6.72;4.30;;;;;;;7.19;100.00;102009.38;5101056;28;20152;-82
2022/10/20 02:12:07;;;;;;;7.15;4.47;;;;;;;7.18;100.00;102010.25;5110341;27;20055;-81
2022/10/20 02:14:37;;;;;;;4.57;4.10;;;;;;;7.18;100.00;102004.09;5098973;28;20027;-82
2022/10/20 02:17:11;;;;;;;7.57;4.68;;;;;;;7.16;100.00;102004.03;5084584;27;20044;-82
2022/10/20 02:19:43;;;;;;;9.57;4.18;;;;;;;7.15;100.00;101990.91;5093288;27;20323;-82
2022/10/20 02:22:16;;;;;;;7.15;4.35;;;;;;;7.13;100.00;102000.44;5099282;27;20054;-82
2022/10/20 02:24:45;;;;;;;7.57;4.95;;;;;;;7.10;100.00;101992.44;5068745;27;20161;-81
2022/10/20 02:27:27;;;;;;;6.97;4.10;;;;;;;7.09;100.00;101991.56;5129130;27;20044;-81
2022/10/20 02:30:03;;;;;;;8.20;4.40;;;;;;;7.09;100.00;101990.66;5134587;27;20296;-81
2022/10/20 02:32:34;;;;;;;8.85;4.32;;;;;;;7.07;100.00;101993.25;5079027;28;20439;-83
2022/10/20 02:35:11;;;;;;;6.75;4.57;;;;;;;7.06;100.00;101996.69;5092765;27;20039;-80
2022/10/20 02:37:40;;;;;;;8.65;4.70;;;;;;;7.03;100.00;101987.00;5099017;28;20261;-81
2022/10/20 02:40:09;;;;;;;9.95;4.60;;;;;;;7.00;100.00;101992.13;5116316;27;20058;-81
2022/10/20 02:42:39;;;;;;;7.15;4.97;;;;;;;6.98;100.00;101979.81;5095049;28;20595;-81
2022/10/20 02:45:09;;;;;;;9.93;5.15;;;;;;;6.96;100.00;101997.19;5092567;28;20047;-83
2022/10/20 02:47:37;;;;;;;10.55;5.00;;;;;;;6.92;100.00;102000.53;5104913;28;20047;-81
2022/10/20 02:50:07;;;;;;;9.05;4.47;;;;;;;6.89;100.00;101982.97;5086284;28;20373;-81
2022/10/20 02:52:36;;;;;;;11.82;5.28;;;;;;;6.86;100.00;101981.97;5082423;28;20032;-82
2022/10/20 02:55:05;;;;;;;7.28;4.25;;;;;;;6.81;100.00;101973.94;5097466;28;20038;-82
2022/10/20 02:57:33;;;;;;;7.68;4.47;;;;;;;6.79;100.00;101966.03;5106728;28;20067;-83
2022/10/20 03:00:05;;;;;;;9.02;5.38;;;;;;;6.76;100.00;101965.91;5083877;28;20051;-82
2022/10/20 03:02:33;;;;;;;6.30;5.00;;;;;;;6.75;100.00;101971.13;5073461;28;20054;-82
2022/10/20 03:05:02;;;;;;;10.48;5.95;;;;;;;6.73;100.00;101955.34;5093653;28;20035;-82
2022/10/20 03:07:32;;;;;;;7.32;5.20;;;;;;;6.71;100.00;101958.72;5043726;28;20142;-82
2022/10/20 03:10:01;;;;;;;12.65;6.07;;;;;;;6.70;100.00;101952.59;5087065;28;20048;-82
2022/10/20 03:12:29;;;;;;;9.10;4.85;;;;;;;6.70;100.00;101949.09;5070601;28;20064;-83
2022/10/20 03:14:59;;;;;;;10.13;5.65;;;;;;;6.70;100.00;101946.47;5063124;28;20404;-82
2022/10/20 03:17:28;;;;;;;7.07;5.30;;;;;;;6.70;100.00;101942.13;5069621;28;20028;-82
2022/10/20 03:19:56;;;;;;;6.63;5.13;;;;;;;6.69;100.00;101934.19;5095692;28;20052;-81
2022/10/20 03:22:25;;;;;;;10.48;5.60;;;;;;;6.70;100.00;101941.22;5067929;28;20039;-82
2022/10/20 03:24:56;;;;;;;9.65;5.30;;;;;;;6.67;100.00;101934.13;5092439;28;20575;-82
2022/10/20 03:27:24;;;;;;;6.82;5.22;;;;;;;6.67;100.00;101943.72;5075464;28;20059;-83
2022/10/20 03:29:53;;;;;;;9.77;5.57;;;;;;;6.66;100.00;101941.97;5080238;28;20047;-81
2022/10/20 03:32:21;;;;;;;8.30;6.28;;;;;;;6.64;100.00;101929.69;5107421;28;20044;-82
2022/10/20 03:34:50;;;;;;;10.30;6.13;;;;;;;6.63;100.00;101934.84;5078066;28;20042;-81
2022/10/20 03:37:18;;;;;;;12.07;6.03;;;;;;;6.62;100.00;101915.63;5072525;28;20035;-82
2022/10/20 03:39:47;;;;;;;6.82;5.82;;;;;;;6.60;100.00;101917.31;5094547;28;20059;-81
2022/10/20 03:42:16;;;;;;;8.73;5.55;;;;;;;6.60;100.00;101921.66;5069809;28;20039;-82
2022/10/20 03:44:44;;;;;;;9.00;6.43;;;;;;;6.58;100.00;101913.75;5093612;28;20040;-83
2022/10/20 03:47:13;;;;;;;11.50;6.72;;;;;;;6.58;100.00;101903.28;5096605;27;20046;-82
2022/10/20 03:49:41;;;;;;;7.90;6.00;;;;;;;6.58;100.00;101897.16;5096042;28;20424;-82
2022/10/20 03:52:10;;;;;;;10.75;6.47;;;;;;;6.56;100.00;101886.63;5098579;27;20039;-82
2022/10/20 03:54:39;;;;;;;9.75;6.70;;;;;;;6.55;100.00;101871.72;5115738;27;20247;-81
2022/10/20 03:57:08;;;;;;;10.45;6.30;;;;;;;6.53;100.00;101867.28;5104478;28;20048;-81
2022/10/20 03:59:36;;;;;;;7.57;6.15;;;;;;;6.52;100.00;101866.41;5094222;27;20054;-81
2022/10/20 04:02:05;;;;;;;11.43;6.75;;;;;;;6.50;100.00;101849.72;5085447;27;20042;-82
2022/10/20 04:04:33;;;;;;;12.32;7.03;;;;;;;6.49;100.00;101855.81;5088999;27;20034;-82
2022/10/20 04:07:02;;;;;;;8.30;6.43;;;;;;;6.48;100.00;101846.16;5089162;27;20046;-80
2022/10/20 04:09:30;;;;;;;10.23;7.05;;;;;;;6.45;100.00;101846.06;5059931;27;20038;-83
2022/10/20 04:12:00;;;;;;;9.32;6.80;;;;;;;6.42;100.00;101836.34;5104796;27;20035;-81
2022/10/20 04:14:29;;;;;;;12.73;9.00;;;;;;;6.42;100.00;101833.72;5080815;28;20680;-82
2022/10/20 04:16:58;;;;;;;13.25;9.00;;;;;;;6.41;100.00;101837.19;5113112;28;20055;-82
2022/10/20 04:19:26;;;;;;;14.63;7.93;;;;;;;6.40;100.00;101830.16;5063124;27;20023;-81
2022/10/20 04:21:54;;;;;;;16.00;8.98;;;;;;;6.39;100.00;101840.56;5109376;27;20043;-81
2022/10/20 04:24:23;;;;;;;14.35;8.90;;;;;;;6.39;100.00;101833.63;5105873;27;20047;-82
2022/10/20 04:26:51;;;;;;;11.98;8.27;;;;;;;6.38;100.00;101826.59;5099519;27;20051;-82
2022/10/20 04:29:20;;;;;;;13.55;8.40;;;;;;;6.38;100.00;101816.13;5111824;27;20038;-82
2022/10/20 04:31:48;;;;;;;15.57;8.57;;;;;;;6.36;100.00;101811.69;5090829;27;20345;-82
2022/10/20 04:34:16;;;;;;;13.75;8.13;;;;;;;6.35;100.00;101810.81;5090739;27;20043;-81
2022/10/20 04:36:45;;;;;;;8.57;7.68;;;;;;;6.33;100.00;101814.19;5063183;28;20048;-81
2022/10/20 04:39:14;;;;;;;10.23;7.55;;;;;;;6.30;100.00;101812.34;5088908;27;20044;-83
2022/10/20 04:41:44;;;;;;;8.88;7.13;;;;;;;6.29;100.00;101805.31;5109538;27;20039;-82
2022/10/20 04:44:13;;;;;;;13.10;7.85;;;;;;;6.29;100.00;101805.31;5098657;28;20119;-81
2022/10/20 04:46:42;;;;;;;10.27;8.32;;;;;;;6.28;100.00;101819.28;5095230;28;20035;-81
2022/10/20 04:49:10;;;;;;;10.73;7.88;;;;;;;6.29;100.00;101822.78;5095309;27;20039;-82
2022/10/20 04:51:38;;;;;;;17.35;8.77;;;;;;;6.28;100.00;101813.16;5121528;27;20527;-81
2022/10/20 04:54:07;;;;;;;9.95;7.63;;;;;;;6.26;100.00;101802.63;5101003;27;20067;-81
2022/10/20 04:56:35;;;;;;;15.05;9.40;;;;;;;6.24;100.00;101797.31;5066146;27;20042;-83
2022/10/20 04:59:04;;;;;;;15.10;8.30;;;;;;;6.24;100.00;101792.09;5102602;27;20511;-82
2022/10/20 05:01:40;;;;;;;11.93;9.05;;;;;;;6.23;100.00;101789.41;5108408;27;20038;-81
2022/10/20 05:04:10;;;;;;;11.20;8.27;;;;;;;6.24;100.00;101788.59;5064783;28;20042;-81
2022/10/20 05:06:38;;;;;;;13.75;9.65;;;;;;;6.23;100.00;101776.31;5102600;28;20047;-81
2022/10/20 05:09:06;;;;;;;11.43;8.63;;;;;;;6.22;100.00;101792.88;5104411;27;20050;-82
2022/10/20 05:11:36;;;;;;;15.73;9.30;;;;;;;6.19;100.00;101780.56;5071539;28;20035;-82
2022/10/20 05:14:04;;;;;;;14.35;9.18;;;;;;;6.18;100.00;101783.09;5101131;28;20047;-82
2022/10/20 05:16:33;;;;;;;12.70;9.15;;;;;;;6.17;100.00;101770.88;5093325;28;20051;-82
2022/10/20 05:19:03;;;;;;;13.93;10.68;;;;;;;6.18;100.00;101775.25;5115704;28;20044;-82
2022/10/20 05:21:31;;;;;;;15.10;10.13;;;;;;;6.17;100.00;101769.13;5109840;27;23257;-82
2022/10/20 05:24:02;;;;;;;13.50;9.02;;;;;;;6.15;100.00;101760.34;5114056;27;20043;-82
2022/10/20 05:26:35;;;;;;;12.30;9.60;;;;;;;6.15;100.00;101752.50;5078829;28;20044;-81
2022/10/20 05:29:06;;;;;;;12.27;9.30;;;;;;;6.15;100.00;101760.34;5109161;28;20388;-82
2022/10/20 05:31:36;;;;;;;;;;;;;;;6.12;100.00;101764.56;5076076;28;20032;-81
2022/10/20 05:34:05;;;;;;;12.75;9.48;;;;;;;6.11;100.00;101747.13;5094837;28;19935;-82
2022/10/20 05:36:33;;;;;;;14.05;8.90;;;;;;;6.11;100.00;101757.56;5085368;28;20350;-81
2022/10/20 05:39:02;;;;;;;12.95;9.75;;;;;;;6.08;100.00;101737.41;5078863;28;20050;-81
2022/10/20 05:41:32;;;;;;;11.30;9.32;;;;;;;6.08;100.00;101732.16;5097571;27;20059;-81
2022/10/20 05:44:10;;;;;;;16.17;10.55;;;;;;;6.08;100.00;101728.66;5098029;28;20367;-81
2022/10/20 05:46:40;;;;;;;11.70;9.27;;;;;;;6.08;100.00;101720.81;5110397;27;20052;-81
2022/10/20 05:49:13;;;;;;;13.43;10.23;;;;;;;6.09;100.00;101736.59;5096747;28;20050;-81
2022/10/20 05:51:42;;;;;;;19.60;10.55;;;;;;;6.09;100.00;101740.91;5109750;28;20062;-82
2022/10/20 05:54:12;;;;;;;12.20;10.07;;;;;;;6.08;100.00;101728.66;5082637;28;20058;-82
2022/10/20 05:56:40;;;;;;;15.82;10.48;;;;;;;6.08;100.00;101721.69;5065427;28;20480;-83
2022/10/20 05:59:09;;;;;;;16.85;11.23;;;;;;;6.07;100.00;101722.56;5096368;28;20043;-82
2022/10/20 06:01:48;;;;;;;16.42;10.38;;;;;;;6.06;100.00;101715.53;5075836;28;20046;-82
2022/10/20 06:04:22;;;;;;;15.10;10.70;;;;;;;6.05;100.00;101706.78;5069069;28;20040;-83
2022/10/20 06:06:53;;;;;;;18.33;11.18;;;;;;;6.04;100.00;101697.16;5101367;28;20388;-82
2022/10/20 06:09:23;;;;;;;16.27;10.85;;;;;;;6.03;100.00;101689.25;5096896;28;20157;-82
2022/10/20 06:11:52;;;;;;;17.35;11.23;;;;;;;6.04;100.00;101685.81;5070306;28;20518;-82
2022/10/20 06:14:21;;;;;;;17.10;11.90;;;;;;;6.04;100.00;101689.31;5091801;28;20036;-82
2022/10/20 06:16:51;;;;;;;18.95;11.85;;;;;;;6.04;100.00;101685.81;5091136;28;20052;-82
2022/10/20 06:19:19;;;;;;;13.48;10.88;;;;;;;6.03;100.00;101687.53;5081086;28;20062;-82
2022/10/20 06:21:48;;;;;;;19.48;11.18;;;;;;;6.04;100.00;101701.50;5082215;27;20058;-82
2022/10/20 06:24:18;;;;;;;13.30;10.35;;;;;;;6.05;100.00;101711.16;5054258;28;20047;-82
2022/10/20 06:26:46;;;;;;;15.63;11.15;;;;;;;6.07;100.00;101699.00;5071748;28;20033;-82
2022/10/20 06:29:18;;;;;;;20.95;11.35;;;;;;;6.07;100.00;101678.06;5037899;28;20047;-82
2022/10/20 06:31:49;;;;;;;15.82;10.27;;;;;;;6.07;100.00;101667.59;5097639;28;20042;-82
2022/10/20 06:34:21;;;;;;;17.70;11.40;;;;;;;6.08;100.00;101669.38;5060396;28;20048;-82
2022/10/20 06:36:50;;;;;;;18.50;10.38;;;;;;;6.11;100.00;101653.78;5104665;28;20036;-82
2022/10/20 06:39:22;;;;;;;15.20;10.95;;;;;;;6.13;100.00;101646.88;5099250;28;20271;-82
2022/10/20 06:41:53;;;;;;;14.30;10.75;;;;;;;6.14;100.00;101648.63;5076195;28;20054;-82
2022/10/20 06:44:23;;;;;;;16.05;10.43;;;;;;;6.16;100.00;101643.47;5070947;28;20036;-81
2022/10/20 06:46:52;;;;;;;14.90;10.45;;;;;;;6.20;100.00;101632.25;5082501;28;20048;-82
2022/10/20 06:49:20;;;;;;;15.65;9.98;;;;;;;6.24;100.00;101631.53;5080743;28;20611;-81
2022/10/20 06:51:49;;;;;;;12.38;9.18;;;;;;;6.28;100.00;101628.19;5074381;28;20130;-82
2022/10/20 06:54:18;;;;;;;14.80;9.35;;;;;;;6.29;100.00;101632.56;5069050;28;20047;-82
2022/10/20 06:56:46;;;;;;;16.30;10.38;;;;;;;6.32;100.00;101626.56;5083142;28;20473;-82
2022/10/20 06:59:14;;;;;;;14.32;9.70;;;;;;;6.36;100.00;101615.34;5054707;28;20053;-82
2022/10/20 07:01:43;;;;;;;13.65;10.23;;;;;;;6.39;100.00;101613.72;5091662;28;20047;-83
2022/10/20 07:04:15;;;;;;;11.90;9.82;;;;;;;6.43;100.00;101620.81;5096614;28;20056;-82
2022/10/20 07:06:45;;;;;;;15.48;10.07;;;;;;;6.51;100.00;101634.16;5077780;28;20051;-82
2022/10/20 07:09:16;;;;;;;7.27;6.60;;;;;;;6.54;100.00;101639.50;5100588;28;20051;-82
2022/10/20 07:11:49;;;;;;;13.25;8.70;;;;;;;6.56;100.00;101648.31;5068442;28;20040;-83
2022/10/20 07:14:18;;;;;;;12.43;8.40;;;;;;;6.60;100.00;101646.69;5046325;28;20044;-82
2022/10/20 07:16:47;;;;;;;10.77;8.27;;;;;;;6.63;100.00;101641.53;5072205;28;20040;-83
2022/10/20 07:19:15;;;;;;;13.77;8.13;;;;;;;6.64;100.00;101641.56;5078269;28;20051;-82
2022/10/20 07:21:44;;;;;;;12.15;7.97;;;;;;;6.69;100.00;101635.59;5081807;28;20040;-82
2022/10/20 07:24:15;;;;;;;13.23;7.75;;;;;;;6.72;100.00;101627.84;5096149;28;20070;-82
2022/10/20 07:26:46;;;;;;;12.40;7.38;;;;;;;6.75;100.00;101628.81;5070509;28;20044;-82
2022/10/20 07:29:15;;;;;;;12.32;8.23;;;;;;;6.77;100.00;101623.63;5058871;28;20054;-81
2022/10/20 07:31:45;;;;;;;11.25;8.10;;;;;;;6.80;100.00;101621.09;5062747;28;20051;-82
2022/10/20 07:34:16;;;;;;;9.18;7.07;;;;;;;6.81;100.00;101623.78;5094272;28;20054;-82
2022/10/20 07:36:55;;;;;;;11.20;8.20;;;;;;;6.80;100.00;101629.84;5113078;28;20048;-82
2022/10/20 07:39:24;;;;;;;11.20;8.48;;;;;;;6.85;100.00;101632.63;5095489;28;20051;-82
2022/10/20 07:41:52;;;;;;;10.68;7.25;;;;;;;6.89;100.00;101636.22;5090802;28;20044;-82
2022/10/20 07:44:20;;;;;;;10.40;7.13;;;;;;;6.89;100.00;101637.09;5070243;28;20052;-82
2022/10/20 07:46:49;;;;;;;11.50;7.75;;;;;;;6.92;100.00;101629.34;5087979;27;20036;-81
2022/10/20 07:49:19;;;;;;;9.95;7.97;;;;;;;6.92;100.00;101618.88;5067437;28;20074;-81
2022/10/20 07:52:08;;;;;;;10.00;6.80;;;;;;;6.92;100.00;101631.97;5072777;28;20036;-81
2022/10/20 07:54:36;;;;;;;10.38;7.82;;;;;;;6.97;100.00;101635.59;5070632;28;20393;-82
2022/10/20 07:57:05;;;;;;;10.80;8.18;;;;;;;7.01;100.00;101623.47;5097735;28;20086;-82
2022/10/20 07:59:33;;;;;;;11.60;7.88;;;;;;;7.01;100.00;101610.38;5048607;27;20043;-82
2022/10/20 08:02:03;;;;;;;8.93;7.47;;;;;;;7.00;100.00;101614.75;5072076;28;20066;-82
2022/10/20 08:04:32;;;;;;;9.60;7.63;;;;;;;7.00;100.00;101606.88;5072040;28;20071;-82
2022/10/20 08:07:01;;;;;;;8.73;7.15;;;;;;;6.98;100.00;101610.31;5099388;27;20253;-82
2022/10/20 08:09:29;;;;;;;9.98;6.93;;;;;;;6.99;100.00;101597.25;5090037;28;20062;-82
2022/10/20 08:12:05;;;;;;;12.20;7.78;;;;;;;7.00;100.00;101593.78;5057395;28;20436;-82
2022/10/20 08:14:35;;;;;;;8.95;7.38;;;;;;;7.04;100.00;101589.50;5050322;28;20589;-82
2022/10/20 08:17:04;;;;;;;14.82;8.38;;;;;;;7.07;100.00;101596.56;5035251;28;20281;-82
2022/10/20 08:19:35;;;;;;;9.00;7.60;;;;;;;7.08;100.00;101575.66;5055201;28;20044;-82
2022/10/20 08:22:10;;;;;;;8.63;7.38;;;;;;;7.11;100.00;101580.13;5074775;28;20689;-82
2022/10/20 08:24:39;;;;;;;9.15;7.40;;;;;;;7.14;100.00;101559.22;5078764;28;20063;-82
2022/10/20 08:27:07;;;;;;;8.55;7.65;;;;;;;7.16;100.00;101561.03;5085609;28;20054;-81
2022/10/20 08:29:36;;;;;;;9.48;6.93;;;;;;;7.20;100.00;101547.19;5069768;28;20040;-81
2022/10/20 08:32:05;;;;;;;10.10;6.32;;;;;;;7.25;100.00;101556.91;5032346;28;20040;-81
2022/10/20 08:34:34;;;;;;;8.68;6.90;;;;;;;7.30;100.00;101571.91;5082599;28;20039;-80
2022/10/20 08:37:02;;;;;;;8.60;7.05;;;;;;;7.36;100.00;101571.22;5068325;28;20173;-80
2022/10/20 08:39:31;;;;;;;8.50;6.85;;;;;;;7.44;100.00;101579.28;5103168;28;20060;-81
2022/10/20 08:42:01;;;;;;;8.63;7.13;;;;;;;7.51;100.00;101570.75;5084302;28;20062;-81
2022/10/20 08:44:39;;;;;;;10.23;6.68;;;;;;;7.58;100.00;101549.97;5099050;27;20054;-80
2022/10/20 08:47:23;;;;;;;9.93;6.82;;;;;;;7.66;100.00;101565.91;5065743;27;21762;-81
2022/10/20 08:49:57;;;;;;;7.57;6.88;;;;;;;7.70;100.00;101541.53;5107087;27;20046;-81
2022/10/20 08:52:26;;;;;;;10.27;6.28;;;;;;;7.74;100.00;101525.00;5125673;27;20039;-82
2022/10/20 08:54:56;;;;;;;7.70;6.78;;;;;;;7.84;100.00;101543.59;5096595;27;20047;-81
2022/10/20 08:57:28;;;;;;;9.07;6.78;;;;;;;7.89;100.00;101537.63;5121729;27;20027;-81
2022/10/20 09:00:17;;;;;;;12.43;6.30;;;;;;;7.96;100.00;101513.31;5105015;27;20487;-81
2022/10/20 09:06:18;;;;;;;12.40;6.40;;;;;;;8.17;100.00;101520.81;5064742;28;20240;-81
2022/10/20 09:08:47;;;;;;;8.95;6.38;;;;;;;8.25;100.00;101518.38;5077156;28;20338;-81
2022/10/20 09:11:35;;;;;;;9.93;6.40;;;;;;;8.33;100.00;101515.94;5076402;28;20050;-81
2022/10/20 09:14:03;;;;;;;9.43;6.65;;;;;;;8.40;100.00;101515.22;5083253;28;20035;-81
2022/10/20 09:16:37;;;;;;;8.30;6.10;;;;;;;8.46;100.00;101514.50;5066706;28;20052;-80
2022/10/20 09:19:23;;;;;;;9.80;5.93;;;;;;;8.52;100.00;101510.25;5046043;28;20262;-80
2022/10/20 09:21:56;;;;;;;7.28;5.95;;;;;;;8.57;100.00;101503.38;5048075;28;20031;-81
2022/10/20 09:24:28;;;;;;;8.40;6.32;;;;;;;8.65;100.00;101507.91;5085652;28;20044;-81
2022/10/20 09:27:38;;;;;;;6.85;6.00;;;;;;;8.77;100.00;101511.69;5059691;28;20523;-79
2022/10/20 09:30:16;;;;;;;7.45;5.85;;;;;;;8.88;100.00;101506.66;5085737;28;20247;-80
2022/10/20 09:32:47;;;;;;;8.52;5.82;;;;;;;8.96;100.00;101502.44;5060998;28;20048;-81
2022/10/20 09:35:29;;;;;;;5.75;5.20;;;;;;;9.07;100.00;101494.75;5075071;28;20321;-82
2022/10/20 09:38:00;;;;;;;;;;;;;;;9.13;100.00;101465.97;5065825;28;20051;-81
2022/10/20 09:40:29;;;;;;;10.75;5.85;;;;;;;9.19;100.00;101462.59;5083312;28;19920;-81
2022/10/20 09:43:06;;;;;;;9.93;6.63;;;;;;;9.21;100.00;101460.88;5055642;28;20043;-82
2022/10/20 09:45:47;;;;;;;9.85;6.88;;;;;;;9.29;100.00;101454.00;5088268;28;20439;-81
2022/10/20 09:48:41;;;;;;;6.90;4.88;;;;;;;9.41;100.00;101460.31;5077669;28;20052;-81
2022/10/20 09:51:14;;;;;;;9.82;6.65;;;;;;;9.47;100.00;101468.31;5090475;28;20149;-81
2022/10/20 09:53:45;;;;;;;8.48;5.93;;;;;;;9.51;100.00;101471.03;5100742;28;20036;-81
2022/10/20 09:56:23;;;;;;;8.40;6.57;;;;;;;9.54;100.00;101459.69;5090727;28;20432;-81
2022/10/20 09:58:55;;;;;;;6.65;5.43;;;;;;;9.56;100.00;101458.88;5062695;28;20047;-82
2022/10/20 10:01:24;;;;;;;7.28;5.97;;;;;;;9.62;100.00;101459.81;5065913;28;20547;-81
2022/10/20 10:03:58;;;;;;;11.50;5.80;;;;;;;9.64;100.00;101447.56;5067680;28;20433;-81
2022/10/20 10:06:43;;;;;;;5.90;5.20;;;;;;;9.72;100.00;101443.34;5102800;28;20048;-82
2022/10/20 10:09:31;;;;;;;6.18;5.30;;;;;;;9.79;100.00;101433.78;5080530;28;20048;-81
2022/10/20 10:12:11;;;;;;;5.75;5.15;;;;;;;9.83;100.00;101428.59;5097011;27;20047;-80
2022/10/20 10:14:55;;;;;;;7.43;6.43;;;;;;;9.93;100.00;101424.34;5070326;28;20241;-81
2022/10/20 10:17:43;;;;;;;7.57;5.70;;;;;;;9.97;100.00;101427.91;5085489;27;20051;-82
2022/10/20 10:20:11;;;;;;;5.68;5.18;;;;;;;9.94;100.00;101423.47;5104943;27;20044;-81
2022/10/20 10:22:41;;;;;;;7.70;5.75;;;;;;;9.96;100.00;101421.75;5053675;28;20047;-81
2022/10/20 10:25:26;;;;;;;6.25;5.63;;;;;;;10.02;100.00;101407.78;5083869;28;20389;-81
2022/10/20 10:28:18;;;;;;;5.30;4.80;;;;;;;10.03;100.00;101406.94;5075587;28;20044;-80
2022/10/20 10:30:47;;;;;;;5.88;5.20;;;;;;;10.07;100.00;101400.84;5078842;28;20048;-82
2022/10/20 10:33:26;;;;;;;5.95;5.35;;;;;;;10.14;100.00;101390.41;5053539;28;20059;-81
2022/10/20 10:35:55;;;;;;;8.23;6.03;;;;;;;10.20;100.00;101378.19;5082468;28;20044;-81
2022/10/20 10:38:24;;;;;;;6.05;5.38;;;;;;;10.26;100.00;101370.38;5084718;27;20040;-82
2022/10/20 10:40:58;;;;;;;8.70;5.30;;;;;;;10.29;100.00;101367.78;5086807;28;20052;-82
2022/10/20 10:43:32;;;;;;;7.40;5.82;;;;;;;10.33;100.00;101367.88;5094047;28;20059;-82
2022/10/20 10:46:25;;;;;;;6.22;5.55;;;;;;;10.38;100.00;101367.03;5064954;28;20036;-82
2022/10/20 10:49:12;;;;;;;6.60;5.38;;;;;;;10.41;100.00;101378.50;5077827;27;20044;-82
2022/10/20 10:51:59;;;;;;;6.25;5.72;;;;;;;10.46;100.00;101366.28;5098243;28;20058;-83
2022/10/20 10:54:49;;;;;;;8.50;5.47;;;;;;;10.57;100.00;101362.88;5103951;28;20055;-82
2022/10/20 10:57:40;;;;;;;10.20;6.45;;;;;;;10.64;100.00;101370.88;5108169;28;20051;-80
2022/10/20 11:00:19;;;;;;;6.43;5.20;;;;;;;10.70;100.00;101362.16;5064175;28;20056;-81
2022/10/20 11:03:02;;;;;;;8.50;5.45;;;;;;;10.74;100.00;101350.78;5060380;28;20049;-83
2022/10/20 11:05:49;;;;;;;6.40;4.85;;;;;;;10.76;100.00;101358.72;5058098;28;20144;-82
2022/10/20 11:08:23;;;;;;;7.03;5.72;;;;;;;10.77;100.00;101352.56;5051531;28;20441;-81
2022/10/20 11:11:07;;;;;;;7.43;5.65;;;;;;;10.80;100.00;101342.94;5042405;28;20051;-82
2022/10/20 11:13:44;;;;;;;6.63;5.82;;;;;;;10.84;100.00;101335.94;5080536;28;20040;-82
2022/10/20 11:16:33;;;;;;;8.55;6.30;;;;;;;10.86;100.00;101334.19;5026837;28;20489;-82
2022/10/20 11:19:20;;;;;;;10.32;7.13;;;;;;;10.91;100.00;101330.72;5052616;28;20053;-82
2022/10/20 11:22:16;;;;;;;10.52;6.88;;;;;;;10.91;100.00;101330.72;5052518;28;20313;-82
2022/10/20 11:25:03;;;;;;;10.02;6.65;;;;;;;10.93;100.00;101321.09;5081410;28;20052;-82
2022/10/20 11:27:36;;;;;;;14.00;6.40;;;;;;;10.98;100.00;101329.03;5068998;28;20151;-81
2022/10/20 11:30:15;;;;;;;9.43;5.70;;;;;;;11.03;100.00;101322.03;5059737;28;20548;-83
2022/10/20 11:33:11;;;;;;;7.00;6.30;;;;;;;11.05;100.00;101319.44;5050588;28;20051;-83
2022/10/20 11:36:11;;;;;;;7.22;6.25;;;;;;;11.11;100.00;101314.19;5102137;28;20133;-83
2022/10/20 11:38:52;;;;;;;9.70;6.95;;;;;;;11.20;100.00;101309.00;5096081;27;20031;-83
2022/10/20 11:41:37;;;;;;;10.55;6.93;;;;;;;11.30;100.00;101310.84;5099369;28;20051;-83
2022/10/20 11:44:09;;;;;;;7.47;6.13;;;;;;;11.40;100.00;101314.44;5123193;28;20028;-83
2022/10/20 11:46:48;;;;;;;8.07;5.82;;;;;;;11.49;100.00;101308.31;5100767;28;20044;-83
2022/10/20 11:49:17;;;;;;;8.38;5.78;;;;;;;11.57;100.00;101311.00;5080286;28;20047;-83
2022/10/20 11:52:18;;;;;;;9.40;6.55;;;;;;;11.63;100.00;101311.94;5080545;28;20039;-84